Time;durP1;ratioP1;P1;durP2;ratioP2;P2;SDS_P1;SDS_P2;PMS_P1;PMS_P2;Temp;Humidity;BMP_temperature;BMP_pressure;BME280_temperature;BME280_humidity;BME280_pressure;Samples;Min_cycle;Max_cycle;Signal;HPM_P1;HPM_P2
2022/12/31 00:00:58;;;;;;;3.15;1.10;;;;;;;8.98;100.00;99103.66;5027741;28;20272;-53
2022/12/31 00:03:23;;;;;;;9.13;1.48;;;;;;;8.93;100.00;99122.81;5027127;28;20458;-53
2022/12/31 00:05:48;;;;;;;7.47;1.30;;;;;;;8.99;100.00;99119.31;5015852;28;20101;-54
2022/12/31 00:08:14;;;;;;;6.32;1.08;;;;;;;9.01;100.00;99119.94;5020678;28;20034;-53
2022/12/31 00:10:40;;;;;;;5.60;0.22;;;;;;;8.89;100.00;99111.06;5020396;28;20035;-55
2022/12/31 00:13:10;;;;;;;4.43;0.55;;;;;;;8.94;100.00;99117.31;5026332;28;20018;-50
2022/12/31 00:15:37;;;;;;;14.07;1.05;;;;;;;9.10;100.00;99129.19;5026885;28;20017;-52
2022/12/31 00:18:02;;;;;;;5.10;0.47;;;;;;;9.15;100.00;99131.22;5022793;28;20033;-53
2022/12/31 00:20:28;;;;;;;11.70;1.17;;;;;;;9.22;100.00;99121.41;5021981;28;20032;-50
2022/12/31 00:22:53;;;;;;;7.97;1.98;;;;;;;9.27;100.00;99118.91;5023779;28;20068;-54
2022/12/31 00:25:18;;;;;;;7.38;1.23;;;;;;;9.46;100.00;99124.25;5015905;28;20029;-57
2022/12/31 00:27:44;;;;;;;6.28;0.55;;;;;;;9.48;100.00;99109.00;5022616;28;20319;-50
2022/12/31 00:30:09;;;;;;;7.90;0.95;;;;;;;9.46;100.00;99118.97;5017720;28;20029;-53
2022/12/31 00:32:35;;;;;;;9.93;1.00;;;;;;;9.55;100.00;99131.72;5021185;28;20040;-54
2022/12/31 00:35:00;;;;;;;14.68;2.35;;;;;;;9.57;100.00;99137.56;5019071;28;20032;-53
2022/12/31 00:37:26;;;;;;;4.78;1.00;;;;;;;10.01;100.00;99130.44;5023472;28;20483;-54
2022/12/31 00:39:51;;;;;;;11.60;1.95;;;;;;;9.68;100.00;99129.97;5015700;28;20076;-54
2022/12/31 00:42:16;;;;;;;11.30;2.42;;;;;;;9.76;100.00;99133.16;5022451;28;20477;-56
2022/12/31 00:44:42;;;;;;;7.60;1.60;;;;;;;9.88;100.00;99133.22;5012282;28;20364;-57
2022/12/31 00:47:07;;;;;;;7.07;2.17;;;;;;;9.79;100.00;99129.25;5016951;28;20540;-54
2022/12/31 00:49:32;;;;;;;8.07;0.82;;;;;;;9.88;100.00;99125.28;5011791;28;20505;-54
2022/12/31 00:51:58;;;;;;;8.27;2.25;;;;;;;9.66;100.00;99116.97;5024375;28;20091;-52
2022/12/31 00:54:23;;;;;;;9.52;0.80;;;;;;;9.82;100.00;99119.03;5018183;28;20041;-54
2022/12/31 00:56:48;;;;;;;4.72;0.50;;;;;;;9.90;100.00;99112.63;5020530;28;20033;-52
2022/12/31 00:59:14;;;;;;;3.38;1.40;;;;;;;9.80;100.00;99099.09;5014087;28;20071;-57
2022/12/31 01:01:41;;;;;;;3.50;0.70;;;;;;;9.79;100.00;99097.50;5012301;28;20378;-54
2022/12/31 01:04:12;;;;;;;7.22;0.30;;;;;;;9.81;100.00;99083.00;5020750;28;20120;-56
2022/12/31 01:06:38;;;;;;;7.18;1.25;;;;;;;9.82;100.00;99084.63;5022625;28;20103;-55
2022/12/31 01:09:05;;;;;;;4.03;0.47;;;;;;;9.80;100.00;99083.22;5022688;28;20061;-53
2022/12/31 01:11:31;;;;;;;7.45;0.60;;;;;;;9.80;100.00;99085.88;5027594;28;20116;-53
2022/12/31 01:14:07;;;;;;;9.23;1.00;;;;;;;9.88;100.00;99098.81;5027143;28;20164;-54
2022/12/31 01:16:39;;;;;;;4.43;1.13;;;;;;;9.87;100.00;99101.69;5019965;28;20042;-52
2022/12/31 01:19:11;;;;;;;3.88;0.70;;;;;;;9.88;100.00;99124.47;5024077;28;20026;-53
2022/12/31 01:21:38;;;;;;;11.65;1.02;;;;;;;9.88;100.00;99148.31;5022909;28;20349;-57
2022/12/31 01:24:04;;;;;;;5.13;0.10;;;;;;;9.85;100.00;99154.84;5024325;28;20371;-53
2022/12/31 01:26:29;;;;;;;6.10;0.43;;;;;;;9.88;100.00;99150.94;5025396;28;20039;-50
2022/12/31 01:28:55;;;;;;;3.47;1.52;;;;;;;9.90;100.00;99138.31;5026433;28;20030;-57
2022/12/31 01:31:21;;;;;;;4.70;1.55;;;;;;;9.90;100.00;99146.25;5024264;28;20070;-52
2022/12/31 01:33:47;;;;;;;2.50;0.50;;;;;;;9.81;100.00;99146.53;5018222;28;20033;-54
2022/12/31 01:36:17;;;;;;;4.10;0.85;;;;;;;9.77;100.00;99142.69;5028406;28;20047;-54
2022/12/31 01:38:43;;;;;;;2.88;0.32;;;;;;;9.79;100.00;99122.13;5025671;28;20067;-56
2022/12/31 01:41:21;;;;;;;1.27;0.32;;;;;;;9.81;100.00;99125.38;5022928;28;20107;-51
2022/12/31 01:43:50;;;;;;;3.47;0.35;;;;;;;9.70;100.00;99120.78;5020053;28;20564;-56
2022/12/31 01:46:41;;;;;;;4.15;0.60;;;;;;;9.58;100.00;99110.09;5034179;28;20030;-55
2022/12/31 01:49:31;;;;;;;11.38;0.55;;;;;;;9.77;100.00;99120.72;5031437;28;20048;-53
2022/12/31 01:52:02;;;;;;;6.18;1.05;;;;;;;9.76;100.00;99116.47;5026664;28;20556;-52
2022/12/31 01:54:31;;;;;;;7.65;0.50;;;;;;;9.66;100.00;99111.66;5022876;28;20038;-57
2022/12/31 01:56:57;;;;;;;3.67;1.05;;;;;;;9.58;100.00;99109.31;5024641;28;20052;-53
2022/12/31 01:59:26;;;;;;;3.88;0.60;;;;;;;9.66;100.00;99114.31;5025524;28;20022;-56
2022/12/31 02:01:51;;;;;;;7.43;0.52;;;;;;;9.72;100.00;99129.31;5020231;28;20022;-56
2022/12/31 02:04:18;;;;;;;4.90;0.75;;;;;;;9.60;100.00;99129.22;5023983;28;20305;-56
2022/12/31 02:06:50;;;;;;;1.35;0.30;;;;;;;9.54;100.00;99137.22;5026917;28;20037;-57
2022/12/31 02:09:16;;;;;;;2.72;1.38;;;;;;;9.56;100.00;99138.63;5024067;28;20394;-55
2022/12/31 02:11:41;;;;;;;6.32;0.50;;;;;;;9.71;100.00;99134.84;5020481;28;20373;-53
2022/12/31 02:14:12;;;;;;;2.85;1.30;;;;;;;9.53;100.00;99136.41;5022862;28;20422;-56
2022/12/31 02:17:01;;;;;;;12.80;0.57;;;;;;;9.44;100.00;99128.97;5020964;28;20036;-56
2022/12/31 02:19:45;;;;;;;5.78;1.98;;;;;;;9.68;100.00;99141.38;5024964;28;20092;-55
2022/12/31 02:22:42;;;;;;;2.00;0.20;;;;;;;9.64;100.00;99132.25;5028158;28;20041;-55
2022/12/31 02:25:35;;;;;;;4.80;0.68;;;;;;;9.39;100.00;99127.75;5018305;28;20040;-55
2022/12/31 02:28:38;;;;;;;7.43;0.50;;;;;;;9.59;100.00;99130.25;5024089;28;20056;-54
2022/12/31 02:31:25;;;;;;;4.68;0.55;;;;;;;9.50;100.00;99138.66;5020137;28;20079;-56
2022/12/31 02:33:58;;;;;;;5.60;0.73;;;;;;;9.40;100.00;99133.88;5016252;28;20037;-57
2022/12/31 02:36:31;;;;;;;1.95;0.22;;;;;;;9.28;100.00;99135.59;5019108;28;20166;-53
2022/12/31 02:38:57;;;;;;;3.83;0.20;;;;;;;9.51;100.00;99140.28;5021368;28;20029;-56
2022/12/31 02:44:25;;;;;;;2.25;0.22;;;;;;;9.27;100.00;99155.94;5019550;28;20044;-58
2022/12/31 02:47:09;;;;;;;3.78;0.35;;;;;;;9.51;100.00;99161.47;5022969;28;20025;-56
2022/12/31 02:49:58;;;;;;;4.95;1.13;;;;;;;9.69;100.00;99150.91;5027082;28;20045;-58
2022/12/31 02:52:45;;;;;;;3.00;0.10;;;;;;;9.28;100.00;99151.47;5022460;28;20487;-54
2022/12/31 02:55:18;;;;;;;8.73;0.52;;;;;;;9.18;100.00;99141.34;5022444;28;20454;-54
2022/12/31 02:57:58;;;;;;;3.33;0.93;;;;;;;9.18;100.00;99146.66;5019324;28;20033;-52
2022/12/31 03:03:09;;;;;;;11.73;1.00;;;;;;;9.06;100.00;99137.78;5019086;28;20539;-54
2022/12/31 03:05:41;;;;;;;4.20;0.10;;;;;;;9.30;100.00;99134.34;5016649;28;20037;-57
2022/12/31 03:08:07;;;;;;;5.10;0.75;;;;;;;9.13;100.00;99136.69;5022684;28;20029;-57
2022/12/31 03:10:33;;;;;;;0.10;0.10;;;;;;;9.30;100.00;99138.84;5019165;28;20022;-57
2022/12/31 03:12:59;;;;;;;3.65;0.20;;;;;;;9.30;100.00;99138.84;5026749;28;20061;-57
2022/12/31 03:15:27;;;;;;;1.45;0.30;;;;;;;9.27;100.00;99137.44;5020417;28;20116;-57
2022/12/31 03:18:11;;;;;;;4.95;0.10;;;;;;;9.18;100.00;99128.13;5015434;28;20431;-53
2022/12/31 03:23:28;;;;;;;4.53;0.98;;;;;;;9.21;100.00;99093.31;5021691;28;20088;-58
2022/12/31 03:25:55;;;;;;;2.78;0.05;;;;;;;9.35;100.00;99092.19;5021527;28;20026;-55
2022/12/31 03:28:24;;;;;;;1.95;0.38;;;;;;;9.25;100.00;99096.34;5024154;28;20474;-56
2022/12/31 03:30:53;;;;;;;4.00;0.32;;;;;;;9.30;100.00;99089.38;5024342;28;20094;-56
2022/12/31 03:33:19;;;;;;;0.20;0.00;;;;;;;9.38;100.00;99089.09;5025255;28;20029;-53
2022/12/31 03:35:46;;;;;;;1.73;0.30;;;;;;;9.40;100.00;99083.63;5019406;28;20553;-52
2022/12/31 03:38:12;;;;;;;3.92;0.45;;;;;;;9.18;100.00;99070.75;5020399;28;20037;-56
2022/12/31 03:40:40;;;;;;;3.03;1.30;;;;;;;9.25;100.00;99070.72;5026782;28;20053;-58
2022/12/31 03:43:06;;;;;;;1.75;0.55;;;;;;;9.37;100.00;99068.97;5022716;28;20104;-56
2022/12/31 03:45:33;;;;;;;5.93;0.57;;;;;;;9.53;100.00;99072.09;5025345;28;20139;-55
2022/12/31 03:47:59;;;;;;;5.75;0.35;;;;;;;9.27;100.00;99079.25;5028239;28;20026;-53
2022/12/31 03:50:24;;;;;;;9.23;1.23;;;;;;;9.57;100.00;99086.50;5023122;28;20510;-54
2022/12/31 03:52:49;;;;;;;2.90;0.40;;;;;;;9.36;100.00;99072.63;5022870;28;20112;-53
2022/12/31 03:55:15;;;;;;;8.23;1.90;;;;;;;9.61;100.00;99069.16;5023676;28;20038;-56
2022/12/31 03:57:40;;;;;;;5.75;0.47;;;;;;;9.54;100.00;99063.13;5027361;28;20039;-51
2022/12/31 04:00:08;;;;;;;6.80;0.20;;;;;;;9.71;100.00;99044.84;5030141;28;20033;-56
2022/12/31 04:02:34;;;;;;;3.40;0.43;;;;;;;9.59;100.00;99045.56;5018279;28;20104;-54
2022/12/31 04:04:59;;;;;;;2.42;0.10;;;;;;;9.55;100.00;99043.56;5023531;28;20546;-57
2022/12/31 04:07:25;;;;;;;3.08;1.23;;;;;;;9.80;100.00;99046.16;5025346;28;20116;-52
2022/12/31 04:09:50;;;;;;;1.05;0.10;;;;;;;9.49;100.00;99068.25;5023335;28;20057;-58
2022/12/31 04:12:16;;;;;;;2.80;0.08;;;;;;;9.64;100.00;99044.09;5020368;28;20044;-59
2022/12/31 04:14:41;;;;;;;5.45;0.75;;;;;;;9.81;100.00;99035.34;5022758;28;20079;-57
2022/12/31 04:17:06;;;;;;;1.00;0.43;;;;;;;9.61;100.00;99040.06;5024347;28;20034;-55
2022/12/31 04:19:32;;;;;;;0.20;0.00;;;;;;;9.77;100.00;99065.94;5030226;28;20057;-56
2022/12/31 04:21:57;;;;;;;0.50;0.10;;;;;;;9.92;100.00;99059.47;5020118;28;20104;-54
2022/12/31 04:24:22;;;;;;;2.03;0.68;;;;;;;9.94;100.00;99049.44;5029292;28;20021;-56
2022/12/31 04:26:48;;;;;;;1.85;0.20;;;;;;;10.03;100.00;99042.84;5025072;28;20036;-55
2022/12/31 04:29:13;;;;;;;1.02;0.05;;;;;;;9.88;100.00;99045.84;5022216;28;20112;-54
2022/12/31 04:31:39;;;;;;;0.90;0.40;;;;;;;9.91;100.00;99056.00;5025960;28;20111;-57
2022/12/31 04:34:04;;;;;;;2.13;0.45;;;;;;;9.99;100.00;99058.38;5019676;28;20108;-51
2022/12/31 04:36:29;;;;;;;0.98;0.00;;;;;;;9.97;100.00;99056.97;5027874;28;20053;-53
2022/12/31 04:38:55;;;;;;;3.20;0.15;;;;;;;9.91;100.00;99049.91;5022670;28;20095;-54
2022/12/31 04:41:20;;;;;;;1.40;0.10;;;;;;;10.17;100.00;99059.38;5025976;28;20026;-52
2022/12/31 04:43:54;;;;;;;0.75;0.00;;;;;;;10.14;100.00;99059.81;5028095;28;20108;-56
2022/12/31 04:46:23;;;;;;;0.00;0.00;;;;;;;10.24;100.00;99052.94;5024533;28;20066;-53
2022/12/31 04:48:48;;;;;;;0.00;0.00;;;;;;;10.55;100.00;99058.28;5024982;28;21490;-54
2022/12/31 04:51:13;;;;;;;0.00;0.00;;;;;;;10.39;100.00;99054.44;5024095;28;20054;-54
2022/12/31 04:53:39;;;;;;;1.75;0.10;;;;;;;10.52;100.00;99056.91;5025379;28;20108;-59
2022/12/31 04:56:06;;;;;;;0.20;0.10;;;;;;;10.66;100.00;99070.78;5026039;28;20029;-56
2022/12/31 04:58:32;;;;;;;2.63;0.38;;;;;;;10.84;100.00;99086.66;5026716;28;20030;-58
2022/12/31 05:00:58;;;;;;;5.68;0.03;;;;;;;10.93;100.00;99076.50;5026365;28;20029;-57
2022/12/31 05:03:25;;;;;;;1.38;0.00;;;;;;;11.04;100.00;99083.66;5029449;28;20033;-55
2022/12/31 05:05:51;;;;;;;3.03;0.00;;;;;;;11.11;100.00;99084.38;5021518;28;20018;-54
2022/12/31 05:08:17;;;;;;;1.88;0.80;;;;;;;11.08;100.00;99082.19;5022275;28;20100;-54
2022/12/31 05:10:46;;;;;;;6.18;1.15;;;;;;;11.25;100.00;99097.44;5030479;28;20436;-55
2022/12/31 05:13:13;;;;;;;1.48;0.10;;;;;;;11.20;100.00;99099.97;5022649;28;20041;-56
2022/12/31 05:15:39;;;;;;;1.08;0.00;;;;;;;11.36;100.00;99088.69;5029349;28;20033;-54
2022/12/31 05:18:05;;;;;;;3.03;0.45;;;;;;;11.42;100.00;99090.41;5025191;28;20112;-60
2022/12/31 05:20:31;;;;;;;1.48;0.25;;;;;;;11.38;100.00;99080.47;5022715;28;20053;-53
2022/12/31 05:22:56;;;;;;;1.35;0.10;;;;;;;11.65;100.00;99091.47;5025389;28;20465;-55
2022/12/31 05:25:22;;;;;;;1.33;0.00;;;;;;;11.42;100.00;99086.97;5023946;28;20059;-53
2022/12/31 05:27:47;;;;;;;5.78;0.25;;;;;;;11.51;100.00;99086.38;5030420;28;20060;-54
2022/12/31 05:30:12;;;;;;;4.43;0.50;;;;;;;11.47;100.00;99087.06;5027340;28;20022;-55
2022/12/31 05:32:38;;;;;;;1.85;0.10;;;;;;;11.39;100.00;99071.50;5025090;28;20029;-57
2022/12/31 05:35:04;;;;;;;7.07;0.22;;;;;;;11.43;100.00;99076.09;5030226;28;20053;-60
2022/12/31 05:37:30;;;;;;;4.57;0.22;;;;;;;11.62;100.00;99094.59;5030586;28;20075;-61
2022/12/31 05:39:56;;;;;;;6.32;0.90;;;;;;;11.88;100.00;99102.09;5020821;28;20076;-56
2022/12/31 05:42:22;;;;;;;3.42;1.17;;;;;;;11.66;100.00;99098.38;5022180;28;20049;-59
2022/12/31 05:44:47;;;;;;;4.35;1.55;;;;;;;11.54;100.00;99099.19;5028258;28;20025;-59
2022/12/31 05:47:13;;;;;;;4.57;0.63;;;;;;;11.66;100.00;99099.19;5025180;28;20037;-57
2022/12/31 05:49:39;;;;;;;1.55;0.50;;;;;;;11.53;100.00;99096.75;5022890;28;20033;-58
2022/12/31 05:52:04;;;;;;;3.05;1.33;;;;;;;11.98;100.00;99107.63;5022363;28;20489;-64
2022/12/31 05:54:31;;;;;;;3.92;0.90;;;;;;;11.70;100.00;99108.31;5024020;28;20095;-58
2022/12/31 05:56:57;;;;;;;2.50;1.20;;;;;;;11.67;100.00;99097.31;5022005;28;20038;-54
2022/12/31 05:59:22;;;;;;;1.27;0.20;;;;;;;11.75;100.00;99118.25;5025182;28;20030;-56
2022/12/31 06:01:48;;;;;;;3.88;1.27;;;;;;;11.68;100.00;99122.84;5025987;28;20033;-55
2022/12/31 06:04:13;;;;;;;1.17;0.65;;;;;;;11.63;100.00;99138.66;5020933;28;20045;-54
2022/12/31 06:06:38;;;;;;;3.25;0.30;;;;;;;12.18;100.00;99154.25;5028402;28;20064;-54
2022/12/31 06:09:04;;;;;;;5.05;0.90;;;;;;;11.82;100.00;99147.31;5026469;28;20080;-57
2022/12/31 06:11:29;;;;;;;8.40;0.98;;;;;;;11.92;100.00;99151.03;5027945;28;20051;-55
2022/12/31 06:13:55;;;;;;;2.53;0.68;;;;;;;11.94;100.00;99146.31;5022837;28;20095;-54
2022/12/31 06:16:20;;;;;;;10.63;1.75;;;;;;;11.89;100.00;99150.69;5020890;28;20025;-57
2022/12/31 06:18:49;;;;;;;7.57;1.98;;;;;;;12.02;100.00;99154.97;5022789;28;20401;-54
2022/12/31 06:21:14;;;;;;;5.82;1.65;;;;;;;11.76;100.00;99154.38;5024291;28;20499;-55
2022/12/31 06:23:40;;;;;;;5.88;1.27;;;;;;;12.07;100.00;99152.41;5032044;28;20029;-56
2022/12/31 06:26:05;;;;;;;14.85;1.55;;;;;;;12.06;100.00;99161.44;5029745;28;20021;-58
2022/12/31 06:28:32;;;;;;;9.60;1.17;;;;;;;12.00;100.00;99153.38;5030452;28;20070;-56
2022/12/31 06:31:02;;;;;;;13.32;1.70;;;;;;;11.99;100.00;99157.03;5035765;28;20059;-56
2022/12/31 06:33:27;;;;;;;4.43;1.80;;;;;;;11.98;100.00;99165.25;5031256;28;20120;-56
2022/12/31 06:35:58;;;;;;;10.88;2.38;;;;;;;12.09;100.00;99145.03;5034708;28;20490;-55
2022/12/31 06:38:24;;;;;;;11.70;2.03;;;;;;;11.87;100.00;99153.56;5027552;28;20034;-53
2022/12/31 06:40:49;;;;;;;14.02;1.58;;;;;;;12.27;100.00;99155.50;5029173;28;20025;-62
2022/12/31 06:43:15;;;;;;;10.25;1.08;;;;;;;12.21;100.00;99133.34;5028269;28;20048;-54
2022/12/31 06:45:40;;;;;;;10.40;3.35;;;;;;;12.02;100.00;99139.03;5028267;28;20031;-52
2022/12/31 06:48:06;;;;;;;12.60;1.80;;;;;;;11.91;100.00;99144.13;5030782;28;20026;-54
2022/12/31 06:50:31;;;;;;;7.97;2.35;;;;;;;12.41;100.00;99148.88;5028439;28;20053;-54
2022/12/31 06:52:57;;;;;;;8.00;1.92;;;;;;;12.12;100.00;99126.75;5036531;28;20497;-52
2022/12/31 06:55:22;;;;;;;24.77;3.08;;;;;;;12.07;100.00;99124.00;5022086;28;20036;-55
2022/12/31 06:57:48;;;;;;;12.93;3.10;;;;;;;12.08;100.00;99130.13;5032753;28;20382;-53
2022/12/31 07:00:14;;;;;;;9.00;1.55;;;;;;;12.32;100.00;99125.56;5017475;28;20045;-56
2022/12/31 07:02:54;;;;;;;8.30;1.42;;;;;;;12.29;100.00;99120.72;5030190;28;20026;-60
2022/12/31 07:05:40;;;;;;;19.63;3.15;;;;;;;12.37;100.00;99102.56;5029844;28;20074;-55
2022/12/31 07:08:27;;;;;;;13.90;2.03;;;;;;;12.32;100.00;99107.78;5026469;28;20367;-54
2022/12/31 07:11:06;;;;;;;7.00;1.80;;;;;;;11.96;100.00;99124.84;5028231;28;20033;-55
2022/12/31 07:13:34;;;;;;;10.85;2.33;;;;;;;12.33;100.00;99119.22;5026332;28;20391;-56
2022/12/31 07:16:35;;;;;;;15.70;3.17;;;;;;;12.27;100.00;99118.31;5035708;28;20028;-59
2022/12/31 07:19:11;;;;;;;20.45;3.20;;;;;;;12.03;100.00;99120.22;5018444;28;20120;-55
2022/12/31 07:21:39;;;;;;;13.73;4.50;;;;;;;11.84;100.00;99139.94;5039115;28;20041;-60
2022/12/31 07:24:06;;;;;;;12.27;1.38;;;;;;;11.84;100.00;99169.94;5026884;28;20025;-59
2022/12/31 07:26:56;;;;;;;16.13;3.85;;;;;;;11.95;100.00;99165.69;5034563;28;20399;-60
2022/12/31 07:29:41;;;;;;;14.77;1.27;;;;;;;12.02;100.00;99166.38;5027377;28;20037;-55
2022/12/31 07:32:17;;;;;;;6.93;0.85;;;;;;;11.85;100.00;99176.91;5031857;28;20025;-60
2022/12/31 07:35:03;;;;;;;5.85;0.68;;;;;;;11.86;100.00;99178.53;5030620;28;20025;-55
2022/12/31 07:37:50;;;;;;;6.70;1.67;;;;;;;11.96;100.00;99197.34;5024054;28;20072;-58
2022/12/31 07:40:34;;;;;;;6.28;0.85;;;;;;;11.88;100.00;99203.00;5022575;28;20041;-56
2022/12/31 07:43:21;;;;;;;7.53;0.98;;;;;;;11.72;100.00;99199.16;5023503;28;20447;-57
2022/12/31 07:46:03;;;;;;;2.78;0.85;;;;;;;11.90;100.00;99192.97;5027779;28;20025;-59
2022/12/31 07:48:29;;;;;;;0.38;0.20;;;;;;;11.79;100.00;99204.34;5028934;28;20029;-55
2022/12/31 07:50:56;;;;;;;4.18;0.60;;;;;;;11.60;100.00;99213.47;5032962;28;20440;-57
2022/12/31 07:53:23;;;;;;;4.32;0.47;;;;;;;12.14;100.00;99224.84;5025270;28;20018;-59
2022/12/31 07:56:02;;;;;;;0.90;0.55;;;;;;;11.86;100.00;99215.72;5028742;28;20039;-58
2022/12/31 07:58:43;;;;;;;6.38;0.20;;;;;;;11.54;100.00;99228.47;5031486;28;20026;-56
2022/12/31 08:01:12;;;;;;;1.73;0.35;;;;;;;11.77;100.00;99222.34;5031337;28;20033;-58
2022/12/31 08:04:06;;;;;;;3.50;0.05;;;;;;;11.83;100.00;99229.41;5017638;28;20285;-56
2022/12/31 08:06:43;;;;;;;0.82;0.20;;;;;;;11.84;100.00;99244.31;5035463;28;20885;-56
2022/12/31 08:09:17;;;;;;;1.10;0.00;;;;;;;11.94;100.00;99239.28;5033858;28;20033;-57
2022/12/31 08:11:42;;;;;;;0.77;0.00;;;;;;;12.03;100.00;99255.69;5033487;28;20033;-58
2022/12/31 08:14:12;;;;;;;3.50;0.40;;;;;;;11.89;100.00;99263.06;5025598;28;20061;-56
2022/12/31 08:16:38;;;;;;;3.15;0.30;;;;;;;11.62;100.00;99277.78;5026874;28;20044;-57
2022/12/31 08:19:03;;;;;;;3.30;0.45;;;;;;;11.60;100.00;99272.66;5029499;28;20025;-57
2022/12/31 08:21:42;;;;;;;2.05;0.40;;;;;;;12.04;100.00;99259.97;5035801;28;20066;-61
2022/12/31 08:24:28;;;;;;;2.25;0.10;;;;;;;11.98;100.00;99267.00;5032791;28;20562;-59
2022/12/31 08:27:18;;;;;;;6.00;0.63;;;;;;;11.97;100.00;99275.19;5031242;28;20129;-54
2022/12/31 08:29:59;;;;;;;4.85;0.50;;;;;;;11.89;100.00;99286.97;5031395;28;20032;-57
2022/12/31 08:32:30;;;;;;;2.42;0.25;;;;;;;11.95;100.00;99302.00;5026934;28;20026;-54
2022/12/31 08:35:15;;;;;;;3.00;0.25;;;;;;;12.03;100.00;99327.44;5038405;28;20112;-57
2022/12/31 08:37:46;;;;;;;5.60;0.52;;;;;;;12.02;100.00;99327.63;5031259;28;20036;-56
2022/12/31 08:40:23;;;;;;;9.60;2.88;;;;;;;12.06;100.00;99326.16;5034035;28;20025;-53
2022/12/31 08:43:15;;;;;;;15.65;1.52;;;;;;;12.11;100.00;99323.63;5026420;28;20037;-50
2022/12/31 08:45:47;;;;;;;15.35;1.17;;;;;;;12.23;100.00;99311.13;5031912;28;20033;-56
2022/12/31 08:48:24;;;;;;;11.00;1.92;;;;;;;11.98;100.00;99322.78;5024517;28;20495;-52
2022/12/31 08:50:49;;;;;;;6.97;1.42;;;;;;;12.22;100.00;99323.63;5021457;28;20057;-56
2022/12/31 08:53:15;;;;;;;5.00;1.75;;;;;;;12.20;100.00;99319.56;5026038;28;20033;-51
2022/12/31 08:55:45;;;;;;;18.15;3.95;;;;;;;12.34;100.00;99318.31;5022499;28;20025;-53
2022/12/31 08:58:29;;;;;;;13.75;1.83;;;;;;;12.35;100.00;99308.50;5018828;28;20018;-53
2022/12/31 09:00:57;;;;;;;25.40;4.00;;;;;;;12.22;100.00;99310.34;5018643;28;20034;-53
2022/12/31 09:03:28;;;;;;;10.27;1.17;;;;;;;12.12;100.00;99318.06;5019349;28;20415;-52
2022/12/31 09:06:10;;;;;;;18.38;3.92;;;;;;;12.20;100.00;99322.22;5019491;28;20029;-51
2022/12/31 09:09:00;;;;;;;12.93;2.53;;;;;;;12.18;100.00;99327.78;5017024;28;20052;-53
2022/12/31 09:11:44;;;;;;;18.50;5.13;;;;;;;12.19;100.00;99325.94;5016234;28;20044;-52
2022/12/31 09:14:19;;;;;;;12.73;1.27;;;;;;;12.19;100.00;99328.59;5018134;28;20055;-56
2022/12/31 09:17:12;;;;;;;18.00;2.15;;;;;;;12.33;100.00;99329.97;5023717;28;20490;-51
2022/12/31 09:19:37;;;;;;;9.00;4.05;;;;;;;12.23;100.00;99338.50;5022067;28;20077;-57
2022/12/31 09:22:02;;;;;;;12.90;1.70;;;;;;;12.27;100.00;99322.94;5017331;28;20061;-54
2022/12/31 09:24:28;;;;;;;7.03;1.52;;;;;;;12.21;100.00;99318.56;5026032;28;20339;-63
2022/12/31 09:27:23;;;;;;;12.70;3.03;;;;;;;12.10;100.00;99312.16;5022856;28;20371;-55
2022/12/31 09:30:02;;;;;;;21.02;4.20;;;;;;;12.34;100.00;99307.69;5024787;28;20025;-55
2022/12/31 09:32:47;;;;;;;15.10;2.42;;;;;;;12.23;100.00;99303.97;5019543;28;20041;-54
2022/12/31 09:35:46;;;;;;;6.03;1.33;;;;;;;12.31;100.00;99310.78;5014856;28;20084;-54
2022/12/31 09:38:20;;;;;;;7.88;2.42;;;;;;;12.03;100.00;99311.47;5033783;28;20078;-50
2022/12/31 09:41:30;;;;;;;14.85;2.90;;;;;;;12.40;100.00;99300.63;5029633;28;20123;-52
2022/12/31 09:44:14;;;;;;;20.60;3.35;;;;;;;12.06;100.00;99286.31;5018581;28;20080;-57
2022/12/31 09:47:12;;;;;;;8.45;1.92;;;;;;;12.23;100.00;99301.31;5016526;28;20089;-52
2022/12/31 09:50:16;;;;;;;16.98;3.05;;;;;;;12.49;100.00;99299.22;5023134;28;20517;-52
2022/12/31 09:53:21;;;;;;;18.88;2.53;;;;;;;12.16;100.00;99290.00;5019070;28;20037;-52
2022/12/31 09:55:58;;;;;;;11.02;2.35;;;;;;;12.56;100.00;99297.28;5024033;28;20032;-51
2022/12/31 09:58:54;;;;;;;12.68;2.55;;;;;;;12.21;100.00;99295.44;5021637;28;20037;-52
2022/12/31 10:01:49;;;;;;;10.43;2.05;;;;;;;12.16;100.00;99295.31;5015413;28;20100;-54
2022/12/31 10:04:31;;;;;;;8.98;1.83;;;;;;;12.42;100.00;99290.59;5018420;28;20061;-54
2022/12/31 10:07:33;;;;;;;9.90;1.98;;;;;;;12.46;100.00;99293.59;5028356;28;20375;-54
2022/12/31 10:10:04;;;;;;;9.55;2.92;;;;;;;11.95;100.00;99290.53;5025110;28;20040;-54
2022/12/31 10:12:40;;;;;;;11.35;3.30;;;;;;;12.16;100.00;99294.53;5026358;28;20407;-51
2022/12/31 10:15:47;;;;;;;9.20;1.80;;;;;;;12.46;100.00;99286.41;5024799;28;20060;-51
2022/12/31 10:18:22;;;;;;;11.00;1.35;;;;;;;12.37;100.00;99283.31;5021213;28;20030;-64
2022/12/31 10:21:25;;;;;;;12.00;3.22;;;;;;;12.26;100.00;99285.94;5018834;28;20030;-54
2022/12/31 10:24:24;;;;;;;8.48;2.97;;;;;;;11.96;100.00;99281.56;5022119;28;20243;-54
2022/12/31 10:26:55;;;;;;;12.88;2.78;;;;;;;12.30;100.00;99300.41;5021370;28;20108;-52
2022/12/31 10:29:58;;;;;;;12.50;3.22;;;;;;;12.10;100.00;99298.06;5017589;28;20054;-50
2022/12/31 10:32:32;;;;;;;14.57;3.35;;;;;;;12.42;100.00;99299.38;5019732;28;20049;-54
2022/12/31 10:35:30;;;;;;;20.00;2.72;;;;;;;12.36;100.00;99299.47;5020286;28;20124;-52
2022/12/31 10:37:58;;;;;;;13.77;2.78;;;;;;;11.92;100.00;99304.28;5018350;28;20033;-52
2022/12/31 10:40:48;;;;;;;9.63;2.58;;;;;;;12.52;100.00;99316.56;5021834;28;20030;-53
2022/12/31 10:43:44;;;;;;;14.13;1.80;;;;;;;12.34;100.00;99306.84;5021326;28;20025;-53
2022/12/31 10:46:47;;;;;;;4.50;0.90;;;;;;;11.78;100.00;99306.31;5006642;28;20040;-56
2022/12/31 10:49:39;;;;;;;17.80;2.92;;;;;;;11.74;100.00;99311.25;5011240;28;20060;-51
2022/12/31 10:52:23;;;;;;;11.00;2.08;;;;;;;12.31;100.00;99316.09;5010249;28;20026;-50
2022/12/31 10:55:06;;;;;;;9.52;1.08;;;;;;;12.20;100.00;99314.25;5013779;28;20033;-57
2022/12/31 10:57:55;;;;;;;11.85;2.45;;;;;;;11.73;100.00;99308.84;5015827;28;20026;-57
2022/12/31 11:00:22;;;;;;;10.02;2.15;;;;;;;11.56;100.00;99330.72;5009405;28;20105;-57
2022/12/31 11:03:17;;;;;;;8.30;1.63;;;;;;;11.43;100.00;99322.91;5010180;28;20034;-57
2022/12/31 11:05:42;;;;;;;5.72;1.65;;;;;;;11.37;100.00;99337.09;5015743;28;20033;-57
2022/12/31 11:08:47;;;;;;;4.07;0.88;;;;;;;11.69;100.00;99355.44;5006743;28;20065;-55
2022/12/31 11:11:49;;;;;;;10.73;1.58;;;;;;;12.19;100.00;99347.19;5010753;28;20528;-58
2022/12/31 11:14:42;;;;;;;5.22;0.65;;;;;;;11.88;100.00;99335.81;5023145;28;20052;-57
2022/12/31 11:17:15;;;;;;;6.00;0.80;;;;;;;12.09;100.00;99338.97;5003756;28;20045;-57
2022/12/31 11:20:16;;;;;;;6.03;0.63;;;;;;;12.13;100.00;99345.44;5015281;28;20437;-54
2022/12/31 11:22:41;;;;;;;9.45;2.08;;;;;;;12.21;100.00;99339.81;5021709;28;20072;-53
2022/12/31 11:25:42;;;;;;;7.25;2.63;;;;;;;12.08;100.00;99340.00;5018167;28;20026;-55
2022/12/31 11:28:17;;;;;;;5.93;0.70;;;;;;;11.75;100.00;99322.69;5018684;28;20049;-58
2022/12/31 11:30:52;;;;;;;10.20;0.88;;;;;;;12.19;100.00;99326.75;5015434;28;20047;-53
2022/12/31 11:33:42;;;;;;;5.57;1.35;;;;;;;12.16;100.00;99327.22;5017398;28;20029;-57
2022/12/31 11:36:27;;;;;;;6.15;1.00;;;;;;;12.13;100.00;99346.28;5013928;28;20490;-53
2022/12/31 11:39:15;;;;;;;6.00;0.65;;;;;;;12.19;100.00;99316.13;5021757;28;20453;-55
2022/12/31 11:41:52;;;;;;;3.85;0.63;;;;;;;12.13;100.00;99310.91;5022567;28;20103;-55
2022/12/31 11:44:20;;;;;;;1.17;0.52;;;;;;;12.22;100.00;99317.50;5023273;28;20033;-55
2022/12/31 11:46:48;;;;;;;7.50;1.05;;;;;;;12.03;100.00;99314.13;5026988;28;20126;-54
2022/12/31 11:49:20;;;;;;;3.60;0.90;;;;;;;12.23;100.00;99311.94;5028460;28;20056;-51
2022/12/31 11:52:15;;;;;;;2.30;1.23;;;;;;;12.20;100.00;99307.09;5023450;28;20524;-58
2022/12/31 11:54:53;;;;;;;0.20;0.20;;;;;;;12.25;100.00;99319.69;5017438;28;20877;-56
2022/12/31 11:57:25;;;;;;;4.55;0.47;;;;;;;12.24;100.00;99312.78;5024791;28;20044;-53
2022/12/31 11:59:56;;;;;;;0.40;0.38;;;;;;;11.87;100.00;99325.41;5029081;28;20036;-58
2022/12/31 12:02:24;;;;;;;;;;;;;;;12.27;100.00;99314.97;5017448;28;20037;-52
2022/12/31 12:04:52;;;;;;;5.28;0.30;;;;;;;12.00;100.00;99303.94;5016374;28;19924;-56